CheckWX is a tool to help pilots better visualize weather data.  It is not intended as a substitute for an official pre-flight weather briefing.

02:54:32 UTC

FQLC TAF
Lichinga Airport
Lichinga, Mozambique
TAF FQLC 222200Z 2300/2400 VRB02KT 9999 BKN017 FEW020CB TX26/2313Z TN18/2303Z PROB30 TEMPO 2300/2306 4000 TSRA SCT006 OVC015 BECMG 2318/2320 17010KT

Mar-23@
00:00 UTC

Mar-23 @ 00:00 UTC

Mar-23@
18:00 UTC

Mar-23 @ 18:00 UTC

TAF FQLC 222200Z 2300/2400 VRB02KT 9999 BKN017 FEW020CB TX26/2313Z TN18/2303Z
Wind
  • Variable at 2 KTS
Cloud Levels
  • Broken at 1,700' AGL
  • Few at 2,000' AGL

Mar-23@
00:00 UTC

Mar-23 @ 00:00 UTC

Mar-23@
06:00 UTC

Mar-23 @ 06:00 UTC

PROB30 TEMPO 2300/2306 4000 TSRA SCT006 OVC015

Temporary - 30% Likelihood

Temporary - 30% Likelihood during this time.

Conditions
Thunderstorm, Rain
Cloud Levels
  • Scattered at 600' AGL
  • Overcast at 1,500' AGL

Mar-23@
18:00 UTC

Mar-23 @ 18:00 UTC

Mar-24@
00:00 UTC

Mar-24 @ 00:00 UTC

BECMG 2318/2320 17010KT

Becoming

Becoming Conditions expected by Sat, Mar 23, 2019 @ 20:00 UTC

Wind
  • 170° at 10 KTS
Cloud Levels
  • Broken at 1,700' AGL
  • Few at 2,000' AGL